sensor_id;sensor_type;location;lat;lon;timestamp;temperature;humidity
15231;DHT22;32569;51.762;8.564;2023-12-20T00:01:23;7.10;99.90
15231;DHT22;32569;51.762;8.564;2023-12-20T00:03:49;7.10;99.90
15231;DHT22;32569;51.762;8.564;2023-12-20T00:06:16;7.00;99.90
15231;DHT22;32569;51.762;8.564;2023-12-20T00:08:42;7.00;99.90
15231;DHT22;32569;51.762;8.564;2023-12-20T00:11:10;6.90;99.90
15231;DHT22;32569;51.762;8.564;2023-12-20T00:13:36;6.80;99.90
15231;DHT22;32569;51.762;8.564;2023-12-20T00:16:05;6.90;99.90
15231;DHT22;32569;51.762;8.564;2023-12-20T00:18:32;6.90;99.90
15231;DHT22;32569;51.762;8.564;2023-12-20T00:20:58;6.80;99.90
15231;DHT22;32569;51.762;8.564;2023-12-20T00:23:25;6.80;99.90
15231;DHT22;32569;51.762;8.564;2023-12-20T00:25:52;6.80;99.90
15231;DHT22;32569;51.762;8.564;2023-12-20T00:28:18;6.70;99.90
15231;DHT22;32569;51.762;8.564;2023-12-20T00:30:45;6.70;99.90
15231;DHT22;32569;51.762;8.564;2023-12-20T00:33:13;6.70;99.90
15231;DHT22;32569;51.762;8.564;2023-12-20T00:35:40;6.60;99.90
15231;DHT22;32569;51.762;8.564;2023-12-20T00:38:06;6.60;99.90
15231;DHT22;32569;51.762;8.564;2023-12-20T00:40:34;6.60;99.90
15231;DHT22;32569;51.762;8.564;2023-12-20T00:43:01;6.50;99.90
15231;DHT22;32569;51.762;8.564;2023-12-20T00:45:27;6.50;99.90
15231;DHT22;32569;51.762;8.564;2023-12-20T00:47:54;6.40;99.90
15231;DHT22;32569;51.762;8.564;2023-12-20T00:50:22;6.40;99.90
15231;DHT22;32569;51.762;8.564;2023-12-20T00:52:48;6.40;99.90
15231;DHT22;32569;51.762;8.564;2023-12-20T00:55:15;6.40;99.90
15231;DHT22;32569;51.762;8.564;2023-12-20T00:57:42;6.40;99.90
15231;DHT22;32569;51.762;8.564;2023-12-20T01:00:09;6.30;99.90
15231;DHT22;32569;51.762;8.564;2023-12-20T01:02:39;6.40;99.90
15231;DHT22;32569;51.762;8.564;2023-12-20T01:05:06;6.40;99.90
15231;DHT22;32569;51.762;8.564;2023-12-20T01:07:36;6.40;99.90
15231;DHT22;32569;51.762;8.564;2023-12-20T01:10:03;6.30;99.90
15231;DHT22;32569;51.762;8.564;2023-12-20T01:12:29;6.30;99.90
15231;DHT22;32569;51.762;8.564;2023-12-20T01:14:56;6.20;99.90
15231;DHT22;32569;51.762;8.564;2023-12-20T01:17:24;6.20;99.90
15231;DHT22;32569;51.762;8.564;2023-12-20T01:19:50;6.10;99.90
15231;DHT22;32569;51.762;8.564;2023-12-20T01:22:17;6.10;99.90
15231;DHT22;32569;51.762;8.564;2023-12-20T01:24:45;6.10;99.90
15231;DHT22;32569;51.762;8.564;2023-12-20T01:27:12;6.20;99.90
15231;DHT22;32569;51.762;8.564;2023-12-20T01:29:38;6.20;99.90
15231;DHT22;32569;51.762;8.564;2023-12-20T01:32:06;6.10;99.90
15231;DHT22;32569;51.762;8.564;2023-12-20T01:34:32;6.20;99.90
15231;DHT22;32569;51.762;8.564;2023-12-20T01:37:01;6.20;99.90
15231;DHT22;32569;51.762;8.564;2023-12-20T01:39:29;6.20;99.90
15231;DHT22;32569;51.762;8.564;2023-12-20T01:41:57;6.30;99.90
15231;DHT22;32569;51.762;8.564;2023-12-20T01:44:23;6.30;99.90
15231;DHT22;32569;51.762;8.564;2023-12-20T01:46:50;6.30;99.90
15231;DHT22;32569;51.762;8.564;2023-12-20T01:49:17;6.30;99.90
15231;DHT22;32569;51.762;8.564;2023-12-20T01:51:44;6.40;99.90
15231;DHT22;32569;51.762;8.564;2023-12-20T01:54:11;6.40;99.90
15231;DHT22;32569;51.762;8.564;2023-12-20T01:56:39;6.40;99.90
15231;DHT22;32569;51.762;8.564;2023-12-20T01:59:14;6.40;99.90
15231;DHT22;32569;51.762;8.564;2023-12-20T02:01:41;6.40;99.90
15231;DHT22;32569;51.762;8.564;2023-12-20T02:04:07;6.40;99.90
15231;DHT22;32569;51.762;8.564;2023-12-20T02:06:34;6.40;99.90
15231;DHT22;32569;51.762;8.564;2023-12-20T02:09:01;6.40;99.90
15231;DHT22;32569;51.762;8.564;2023-12-20T02:11:27;6.40;99.90
15231;DHT22;32569;51.762;8.564;2023-12-20T02:13:54;6.40;99.90
15231;DHT22;32569;51.762;8.564;2023-12-20T02:16:22;6.30;99.90
15231;DHT22;32569;51.762;8.564;2023-12-20T02:18:49;6.30;99.90
15231;DHT22;32569;51.762;8.564;2023-12-20T02:21:15;6.20;99.90
15231;DHT22;32569;51.762;8.564;2023-12-20T02:23:43;6.20;99.90
15231;DHT22;32569;51.762;8.564;2023-12-20T02:26:10;6.20;99.90
15231;DHT22;32569;51.762;8.564;2023-12-20T02:28:39;6.20;99.90
15231;DHT22;32569;51.762;8.564;2023-12-20T02:31:05;6.10;99.90
15231;DHT22;32569;51.762;8.564;2023-12-20T02:33:32;6.10;99.90
15231;DHT22;32569;51.762;8.564;2023-12-20T02:35:59;6.10;99.90
15231;DHT22;32569;51.762;8.564;2023-12-20T02:38:25;6.10;99.90
15231;DHT22;32569;51.762;8.564;2023-12-20T02:40:53;6.00;99.90
15231;DHT22;32569;51.762;8.564;2023-12-20T02:43:20;6.00;99.90
15231;DHT22;32569;51.762;8.564;2023-12-20T02:45:46;5.90;99.90
15231;DHT22;32569;51.762;8.564;2023-12-20T02:48:13;5.90;99.90
15231;DHT22;32569;51.762;8.564;2023-12-20T02:50:40;5.90;99.90
15231;DHT22;32569;51.762;8.564;2023-12-20T02:53:06;5.90;99.90
15231;DHT22;32569;51.762;8.564;2023-12-20T02:55:33;5.90;99.90
15231;DHT22;32569;51.762;8.564;2023-12-20T02:58:01;5.90;99.90
15231;DHT22;32569;51.762;8.564;2023-12-20T03:00:28;5.90;99.90
15231;DHT22;32569;51.762;8.564;2023-12-20T03:02:54;5.90;99.90
15231;DHT22;32569;51.762;8.564;2023-12-20T03:05:21;5.90;99.90
15231;DHT22;32569;51.762;8.564;2023-12-20T03:07:47;5.90;99.90
15231;DHT22;32569;51.762;8.564;2023-12-20T03:10:14;5.90;99.90
15231;DHT22;32569;51.762;8.564;2023-12-20T03:12:41;5.80;99.90
15231;DHT22;32569;51.762;8.564;2023-12-20T03:15:09;5.90;99.90
15231;DHT22;32569;51.762;8.564;2023-12-20T03:17:36;5.90;99.90
15231;DHT22;32569;51.762;8.564;2023-12-20T03:20:03;5.90;99.90
15231;DHT22;32569;51.762;8.564;2023-12-20T03:22:30;6.00;99.90
15231;DHT22;32569;51.762;8.564;2023-12-20T03:24:56;6.00;99.90
15231;DHT22;32569;51.762;8.564;2023-12-20T03:27:23;6.00;99.90
15231;DHT22;32569;51.762;8.564;2023-12-20T03:29:49;6.00;99.90
15231;DHT22;32569;51.762;8.564;2023-12-20T03:32:17;6.00;99.90
15231;DHT22;32569;51.762;8.564;2023-12-20T03:34:44;6.00;99.90
15231;DHT22;32569;51.762;8.564;2023-12-20T03:37:11;6.00;99.90
15231;DHT22;32569;51.762;8.564;2023-12-20T03:39:37;6.00;99.90
15231;DHT22;32569;51.762;8.564;2023-12-20T03:42:04;6.00;99.90
15231;DHT22;32569;51.762;8.564;2023-12-20T03:44:31;6.00;99.90
15231;DHT22;32569;51.762;8.564;2023-12-20T03:46:57;6.00;99.90
15231;DHT22;32569;51.762;8.564;2023-12-20T03:49:25;6.00;99.90
15231;DHT22;32569;51.762;8.564;2023-12-20T03:51:52;6.10;99.90
15231;DHT22;32569;51.762;8.564;2023-12-20T03:54:18;6.00;99.90
15231;DHT22;32569;51.762;8.564;2023-12-20T03:56:45;6.00;99.90
15231;DHT22;32569;51.762;8.564;2023-12-20T03:59:11;6.10;99.90
15231;DHT22;32569;51.762;8.564;2023-12-20T04:01:38;6.00;99.90
15231;DHT22;32569;51.762;8.564;2023-12-20T04:04:05;6.10;99.90
15231;DHT22;32569;51.762;8.564;2023-12-20T04:06:32;6.00;99.90
15231;DHT22;32569;51.762;8.564;2023-12-20T04:08:59;6.00;99.90
15231;DHT22;32569;51.762;8.564;2023-12-20T04:11:26;6.00;99.90
15231;DHT22;32569;51.762;8.564;2023-12-20T04:13:53;6.00;99.90
15231;DHT22;32569;51.762;8.564;2023-12-20T04:16:19;6.00;99.90
15231;DHT22;32569;51.762;8.564;2023-12-20T04:18:46;6.00;99.90
15231;DHT22;32569;51.762;8.564;2023-12-20T04:21:13;5.90;99.90
15231;DHT22;32569;51.762;8.564;2023-12-20T04:23:40;6.00;99.90
15231;DHT22;32569;51.762;8.564;2023-12-20T04:26:07;5.90;99.90
15231;DHT22;32569;51.762;8.564;2023-12-20T04:28:34;6.00;99.90
15231;DHT22;32569;51.762;8.564;2023-12-20T04:31:00;5.90;99.90
15231;DHT22;32569;51.762;8.564;2023-12-20T04:33:27;5.90;99.90
15231;DHT22;32569;51.762;8.564;2023-12-20T04:35:53;6.00;99.90
15231;DHT22;32569;51.762;8.564;2023-12-20T04:38:20;6.00;99.90
15231;DHT22;32569;51.762;8.564;2023-12-20T04:40:48;6.00;99.90
15231;DHT22;32569;51.762;8.564;2023-12-20T04:43:15;6.00;99.90
15231;DHT22;32569;51.762;8.564;2023-12-20T04:45:41;6.00;99.90
15231;DHT22;32569;51.762;8.564;2023-12-20T04:48:08;6.10;99.90
15231;DHT22;32569;51.762;8.564;2023-12-20T04:50:34;6.00;99.90
15231;DHT22;32569;51.762;8.564;2023-12-20T04:53:01;6.10;99.90
15231;DHT22;32569;51.762;8.564;2023-12-20T04:55:28;6.00;99.90
15231;DHT22;32569;51.762;8.564;2023-12-20T04:57:56;6.00;99.90
15231;DHT22;32569;51.762;8.564;2023-12-20T05:00:22;6.00;99.90
15231;DHT22;32569;51.762;8.564;2023-12-20T05:02:49;6.10;99.90
15231;DHT22;32569;51.762;8.564;2023-12-20T05:05:16;6.00;99.90
15231;DHT22;32569;51.762;8.564;2023-12-20T05:07:43;6.00;99.90
15231;DHT22;32569;51.762;8.564;2023-12-20T05:10:10;6.00;99.90
15231;DHT22;32569;51.762;8.564;2023-12-20T05:12:36;6.10;99.90
15231;DHT22;32569;51.762;8.564;2023-12-20T05:15:06;6.00;99.90
15231;DHT22;32569;51.762;8.564;2023-12-20T05:17:32;6.00;99.90
15231;DHT22;32569;51.762;8.564;2023-12-20T05:19:59;6.10;99.90
15231;DHT22;32569;51.762;8.564;2023-12-20T05:22:26;6.00;99.90
15231;DHT22;32569;51.762;8.564;2023-12-20T05:24:53;6.00;99.90
15231;DHT22;32569;51.762;8.564;2023-12-20T05:27:19;6.00;99.90
15231;DHT22;32569;51.762;8.564;2023-12-20T05:29:46;6.00;99.90
15231;DHT22;32569;51.762;8.564;2023-12-20T05:32:14;6.00;99.90
15231;DHT22;32569;51.762;8.564;2023-12-20T05:34:40;6.00;99.90
15231;DHT22;32569;51.762;8.564;2023-12-20T05:37:07;6.00;99.90
15231;DHT22;32569;51.762;8.564;2023-12-20T05:39:34;6.00;99.90
15231;DHT22;32569;51.762;8.564;2023-12-20T05:42:00;6.00;99.90
15231;DHT22;32569;51.762;8.564;2023-12-20T05:44:27;6.00;99.90
15231;DHT22;32569;51.762;8.564;2023-12-20T05:46:53;6.00;99.90
15231;DHT22;32569;51.762;8.564;2023-12-20T05:49:21;6.00;99.90
15231;DHT22;32569;51.762;8.564;2023-12-20T05:51:48;6.10;99.90
15231;DHT22;32569;51.762;8.564;2023-12-20T05:54:15;6.00;99.90
15231;DHT22;32569;51.762;8.564;2023-12-20T05:56:42;6.00;99.90
15231;DHT22;32569;51.762;8.564;2023-12-20T05:59:08;6.00;99.90
15231;DHT22;32569;51.762;8.564;2023-12-20T06:01:35;6.10;99.90
15231;DHT22;32569;51.762;8.564;2023-12-20T06:04:02;6.10;99.90
15231;DHT22;32569;51.762;8.564;2023-12-20T06:06:31;6.00;99.90
15231;DHT22;32569;51.762;8.564;2023-12-20T06:08:57;6.00;99.90
15231;DHT22;32569;51.762;8.564;2023-12-20T06:11:27;6.00;99.90
15231;DHT22;32569;51.762;8.564;2023-12-20T06:13:54;6.00;99.90
15231;DHT22;32569;51.762;8.564;2023-12-20T06:16:21;6.10;99.90
15231;DHT22;32569;51.762;8.564;2023-12-20T06:18:47;6.00;99.90
15231;DHT22;32569;51.762;8.564;2023-12-20T06:21:14;6.00;99.90
15231;DHT22;32569;51.762;8.564;2023-12-20T06:23:52;6.10;99.90
15231;DHT22;32569;51.762;8.564;2023-12-20T06:26:18;6.00;99.90
15231;DHT22;32569;51.762;8.564;2023-12-20T06:28:45;6.00;99.90
15231;DHT22;32569;51.762;8.564;2023-12-20T06:31:12;6.00;99.90
15231;DHT22;32569;51.762;8.564;2023-12-20T06:33:38;6.00;99.90
15231;DHT22;32569;51.762;8.564;2023-12-20T06:36:07;6.00;99.90
15231;DHT22;32569;51.762;8.564;2023-12-20T06:38:34;6.00;99.90
15231;DHT22;32569;51.762;8.564;2023-12-20T06:41:02;6.00;99.90
15231;DHT22;32569;51.762;8.564;2023-12-20T06:43:28;6.00;99.90
15231;DHT22;32569;51.762;8.564;2023-12-20T06:45:58;6.00;99.90
15231;DHT22;32569;51.762;8.564;2023-12-20T06:48:24;6.00;99.90
15231;DHT22;32569;51.762;8.564;2023-12-20T06:50:51;6.00;99.90
15231;DHT22;32569;51.762;8.564;2023-12-20T06:53:18;6.10;99.90
15231;DHT22;32569;51.762;8.564;2023-12-20T06:55:46;6.10;99.90
15231;DHT22;32569;51.762;8.564;2023-12-20T06:58:14;6.10;99.90
15231;DHT22;32569;51.762;8.564;2023-12-20T07:00:42;6.10;99.90
15231;DHT22;32569;51.762;8.564;2023-12-20T07:03:09;6.10;99.90
15231;DHT22;32569;51.762;8.564;2023-12-20T07:05:36;6.00;99.90
15231;DHT22;32569;51.762;8.564;2023-12-20T07:08:03;6.00;99.90
15231;DHT22;32569;51.762;8.564;2023-12-20T07:10:30;6.00;99.90
15231;DHT22;32569;51.762;8.564;2023-12-20T07:12:56;6.10;99.90
15231;DHT22;32569;51.762;8.564;2023-12-20T07:15:24;6.00;99.90
15231;DHT22;32569;51.762;8.564;2023-12-20T07:17:52;6.00;99.90
15231;DHT22;32569;51.762;8.564;2023-12-20T07:20:18;6.00;99.90
15231;DHT22;32569;51.762;8.564;2023-12-20T07:22:45;6.00;99.90
15231;DHT22;32569;51.762;8.564;2023-12-20T07:25:12;6.00;99.90
15231;DHT22;32569;51.762;8.564;2023-12-20T07:27:38;6.00;99.90
15231;DHT22;32569;51.762;8.564;2023-12-20T07:30:06;6.10;99.90
15231;DHT22;32569;51.762;8.564;2023-12-20T07:32:34;6.00;99.90
15231;DHT22;32569;51.762;8.564;2023-12-20T07:35:01;6.10;99.90
15231;DHT22;32569;51.762;8.564;2023-12-20T07:37:28;6.00;99.90
15231;DHT22;32569;51.762;8.564;2023-12-20T07:39:55;6.00;99.90
15231;DHT22;32569;51.762;8.564;2023-12-20T07:42:21;6.00;99.90
15231;DHT22;32569;51.762;8.564;2023-12-20T07:44:48;6.10;99.90
15231;DHT22;32569;51.762;8.564;2023-12-20T07:47:15;6.10;99.90
15231;DHT22;32569;51.762;8.564;2023-12-20T07:49:46;6.10;99.90
15231;DHT22;32569;51.762;8.564;2023-12-20T07:52:12;6.10;99.90
15231;DHT22;32569;51.762;8.564;2023-12-20T07:54:39;6.10;99.90
15231;DHT22;32569;51.762;8.564;2023-12-20T07:57:06;6.10;99.90
15231;DHT22;32569;51.762;8.564;2023-12-20T07:59:33;6.10;99.90
15231;DHT22;32569;51.762;8.564;2023-12-20T08:01:59;6.10;99.90
15231;DHT22;32569;51.762;8.564;2023-12-20T08:04:26;6.10;99.90
15231;DHT22;32569;51.762;8.564;2023-12-20T08:06:54;6.10;99.90
15231;DHT22;32569;51.762;8.564;2023-12-20T08:09:21;6.10;99.90
15231;DHT22;32569;51.762;8.564;2023-12-20T08:11:47;6.10;99.90
15231;DHT22;32569;51.762;8.564;2023-12-20T08:14:14;6.20;99.90
15231;DHT22;32569;51.762;8.564;2023-12-20T08:16:41;6.10;99.90
15231;DHT22;32569;51.762;8.564;2023-12-20T08:19:08;6.10;99.90
15231;DHT22;32569;51.762;8.564;2023-12-20T08:21:35;6.10;99.90
15231;DHT22;32569;51.762;8.564;2023-12-20T08:24:03;6.10;99.90
15231;DHT22;32569;51.762;8.564;2023-12-20T08:26:30;6.10;99.90
15231;DHT22;32569;51.762;8.564;2023-12-20T08:28:56;6.10;99.90
15231;DHT22;32569;51.762;8.564;2023-12-20T08:31:23;6.10;99.90
15231;DHT22;32569;51.762;8.564;2023-12-20T08:33:50;6.10;99.90
15231;DHT22;32569;51.762;8.564;2023-12-20T08:36:18;6.10;99.90
15231;DHT22;32569;51.762;8.564;2023-12-20T08:38:46;6.10;99.90
15231;DHT22;32569;51.762;8.564;2023-12-20T08:41:16;6.20;99.90
15231;DHT22;32569;51.762;8.564;2023-12-20T08:43:43;6.20;99.90
15231;DHT22;32569;51.762;8.564;2023-12-20T08:46:10;6.20;99.90
15231;DHT22;32569;51.762;8.564;2023-12-20T08:48:37;6.20;99.90
15231;DHT22;32569;51.762;8.564;2023-12-20T08:51:04;6.20;99.90
15231;DHT22;32569;51.762;8.564;2023-12-20T08:53:32;6.20;99.90
15231;DHT22;32569;51.762;8.564;2023-12-20T08:55:59;6.20;99.90
15231;DHT22;32569;51.762;8.564;2023-12-20T08:58:28;6.20;99.90
15231;DHT22;32569;51.762;8.564;2023-12-20T09:00:55;6.20;99.90
15231;DHT22;32569;51.762;8.564;2023-12-20T09:03:22;6.30;99.90
15231;DHT22;32569;51.762;8.564;2023-12-20T09:05:49;6.20;99.90
15231;DHT22;32569;51.762;8.564;2023-12-20T09:08:16;6.20;99.90
15231;DHT22;32569;51.762;8.564;2023-12-20T09:10:42;6.20;99.90
15231;DHT22;32569;51.762;8.564;2023-12-20T09:13:10;6.30;99.90
15231;DHT22;32569;51.762;8.564;2023-12-20T09:15:38;6.30;99.90
15231;DHT22;32569;51.762;8.564;2023-12-20T09:18:05;6.20;99.90
15231;DHT22;32569;51.762;8.564;2023-12-20T09:20:31;6.30;99.90
15231;DHT22;32569;51.762;8.564;2023-12-20T09:23:00;6.30;99.90
15231;DHT22;32569;51.762;8.564;2023-12-20T09:25:27;6.30;99.90
15231;DHT22;32569;51.762;8.564;2023-12-20T09:27:55;6.30;99.90
15231;DHT22;32569;51.762;8.564;2023-12-20T09:30:22;6.30;99.90
15231;DHT22;32569;51.762;8.564;2023-12-20T09:32:53;6.30;99.90
15231;DHT22;32569;51.762;8.564;2023-12-20T09:35:19;6.40;99.90
15231;DHT22;32569;51.762;8.564;2023-12-20T09:37:46;6.40;99.90
15231;DHT22;32569;51.762;8.564;2023-12-20T09:40:13;6.30;99.90
15231;DHT22;32569;51.762;8.564;2023-12-20T09:42:44;6.40;99.90
15231;DHT22;32569;51.762;8.564;2023-12-20T09:45:15;6.40;99.90
15231;DHT22;32569;51.762;8.564;2023-12-20T09:47:43;6.40;99.90
15231;DHT22;32569;51.762;8.564;2023-12-20T09:50:12;6.40;99.90
15231;DHT22;32569;51.762;8.564;2023-12-20T09:52:40;6.40;99.90
15231;DHT22;32569;51.762;8.564;2023-12-20T09:55:08;6.50;99.90
15231;DHT22;32569;51.762;8.564;2023-12-20T09:57:35;6.50;99.90
15231;DHT22;32569;51.762;8.564;2023-12-20T10:00:02;6.50;99.90
15231;DHT22;32569;51.762;8.564;2023-12-20T10:02:29;6.50;99.90
15231;DHT22;32569;51.762;8.564;2023-12-20T10:04:57;6.50;99.90
15231;DHT22;32569;51.762;8.564;2023-12-20T10:07:26;6.50;99.90
15231;DHT22;32569;51.762;8.564;2023-12-20T10:09:54;6.50;99.90
15231;DHT22;32569;51.762;8.564;2023-12-20T10:12:21;6.60;99.90
15231;DHT22;32569;51.762;8.564;2023-12-20T10:14:48;6.60;99.90
15231;DHT22;32569;51.762;8.564;2023-12-20T10:17:14;6.60;99.90
15231;DHT22;32569;51.762;8.564;2023-12-20T10:19:43;6.60;99.90
15231;DHT22;32569;51.762;8.564;2023-12-20T10:22:10;6.70;99.90
15231;DHT22;32569;51.762;8.564;2023-12-20T10:24:40;6.60;99.90
15231;DHT22;32569;51.762;8.564;2023-12-20T10:27:08;6.60;99.90
15231;DHT22;32569;51.762;8.564;2023-12-20T10:29:36;6.60;99.90
15231;DHT22;32569;51.762;8.564;2023-12-20T10:32:22;6.60;99.90
15231;DHT22;32569;51.762;8.564;2023-12-20T10:34:49;6.70;99.90
15231;DHT22;32569;51.762;8.564;2023-12-20T10:37:16;6.70;99.90
15231;DHT22;32569;51.762;8.564;2023-12-20T10:39:44;6.70;99.90
15231;DHT22;32569;51.762;8.564;2023-12-20T10:42:14;6.70;99.90
15231;DHT22;32569;51.762;8.564;2023-12-20T10:44:42;6.70;99.90
15231;DHT22;32569;51.762;8.564;2023-12-20T10:47:09;6.70;99.90
15231;DHT22;32569;51.762;8.564;2023-12-20T10:49:39;6.70;99.90
15231;DHT22;32569;51.762;8.564;2023-12-20T10:52:07;6.70;99.90
15231;DHT22;32569;51.762;8.564;2023-12-20T10:54:35;6.70;99.90
15231;DHT22;32569;51.762;8.564;2023-12-20T10:57:05;6.80;99.90
15231;DHT22;32569;51.762;8.564;2023-12-20T10:59:33;6.80;99.90
15231;DHT22;32569;51.762;8.564;2023-12-20T11:02:02;6.80;99.90
15231;DHT22;32569;51.762;8.564;2023-12-20T11:04:36;6.90;99.90
15231;DHT22;32569;51.762;8.564;2023-12-20T11:07:15;6.80;99.90
15231;DHT22;32569;51.762;8.564;2023-12-20T11:09:47;6.80;99.90
15231;DHT22;32569;51.762;8.564;2023-12-20T11:12:21;6.80;99.90
15231;DHT22;32569;51.762;8.564;2023-12-20T11:14:53;6.80;99.90
15231;DHT22;32569;51.762;8.564;2023-12-20T11:17:21;6.80;99.90
15231;DHT22;32569;51.762;8.564;2023-12-20T11:20:07;6.80;99.90
15231;DHT22;32569;51.762;8.564;2023-12-20T11:22:36;6.70;99.90
15231;DHT22;32569;51.762;8.564;2023-12-20T11:25:04;6.70;99.90
15231;DHT22;32569;51.762;8.564;2023-12-20T11:27:33;6.70;99.90
15231;DHT22;32569;51.762;8.564;2023-12-20T11:30:03;6.70;99.90
15231;DHT22;32569;51.762;8.564;2023-12-20T11:32:32;6.70;99.90
15231;DHT22;32569;51.762;8.564;2023-12-20T11:35:01;6.70;99.90
15231;DHT22;32569;51.762;8.564;2023-12-20T11:37:42;6.70;99.90
15231;DHT22;32569;51.762;8.564;2023-12-20T11:40:12;6.70;99.90
15231;DHT22;32569;51.762;8.564;2023-12-20T11:42:42;6.70;99.90
15231;DHT22;32569;51.762;8.564;2023-12-20T11:45:10;6.70;99.90
15231;DHT22;32569;51.762;8.564;2023-12-20T11:47:37;6.70;99.90
15231;DHT22;32569;51.762;8.564;2023-12-20T11:50:06;6.70;99.90
15231;DHT22;32569;51.762;8.564;2023-12-20T11:52:35;6.70;99.90
15231;DHT22;32569;51.762;8.564;2023-12-20T11:55:03;6.80;99.90
15231;DHT22;32569;51.762;8.564;2023-12-20T11:57:29;6.80;99.90
15231;DHT22;32569;51.762;8.564;2023-12-20T11:59:57;6.80;99.90
15231;DHT22;32569;51.762;8.564;2023-12-20T12:02:24;6.80;99.90
15231;DHT22;32569;51.762;8.564;2023-12-20T12:04:51;6.80;99.90
15231;DHT22;32569;51.762;8.564;2023-12-20T12:07:18;6.70;99.90
15231;DHT22;32569;51.762;8.564;2023-12-20T12:09:45;6.70;99.90
15231;DHT22;32569;51.762;8.564;2023-12-20T12:12:15;6.70;99.90
15231;DHT22;32569;51.762;8.564;2023-12-20T12:14:41;6.80;99.90
15231;DHT22;32569;51.762;8.564;2023-12-20T12:17:11;7.00;99.90
15231;DHT22;32569;51.762;8.564;2023-12-20T12:19:39;7.10;99.90
15231;DHT22;32569;51.762;8.564;2023-12-20T12:22:06;7.20;99.90
15231;DHT22;32569;51.762;8.564;2023-12-20T12:24:35;7.30;99.90
15231;DHT22;32569;51.762;8.564;2023-12-20T12:27:02;7.40;99.90
15231;DHT22;32569;51.762;8.564;2023-12-20T12:29:29;7.30;99.90
15231;DHT22;32569;51.762;8.564;2023-12-20T12:31:56;7.30;99.90
15231;DHT22;32569;51.762;8.564;2023-12-20T12:34:24;7.30;99.90
15231;DHT22;32569;51.762;8.564;2023-12-20T12:36:53;7.30;99.90
15231;DHT22;32569;51.762;8.564;2023-12-20T12:39:20;7.30;99.90
15231;DHT22;32569;51.762;8.564;2023-12-20T12:41:46;7.40;99.90
15231;DHT22;32569;51.762;8.564;2023-12-20T12:44:13;7.40;99.90
15231;DHT22;32569;51.762;8.564;2023-12-20T12:46:40;7.40;99.90
15231;DHT22;32569;51.762;8.564;2023-12-20T12:49:07;7.40;99.90
15231;DHT22;32569;51.762;8.564;2023-12-20T12:51:34;7.50;99.90
15231;DHT22;32569;51.762;8.564;2023-12-20T12:54:01;7.50;99.90
15231;DHT22;32569;51.762;8.564;2023-12-20T12:56:29;7.50;99.90
15231;DHT22;32569;51.762;8.564;2023-12-20T12:58:55;7.50;99.90
15231;DHT22;32569;51.762;8.564;2023-12-20T13:01:22;7.50;99.90
15231;DHT22;32569;51.762;8.564;2023-12-20T13:03:49;7.50;99.90
15231;DHT22;32569;51.762;8.564;2023-12-20T13:06:15;7.50;99.90
15231;DHT22;32569;51.762;8.564;2023-12-20T13:08:44;7.50;99.90
15231;DHT22;32569;51.762;8.564;2023-12-20T13:11:11;7.40;99.90
15231;DHT22;32569;51.762;8.564;2023-12-20T13:13:38;7.50;99.90
15231;DHT22;32569;51.762;8.564;2023-12-20T13:16:05;7.40;99.90
15231;DHT22;32569;51.762;8.564;2023-12-20T13:18:32;7.40;99.90
15231;DHT22;32569;51.762;8.564;2023-12-20T13:20:58;7.40;99.90
15231;DHT22;32569;51.762;8.564;2023-12-20T13:23:25;7.40;99.90
15231;DHT22;32569;51.762;8.564;2023-12-20T13:25:53;7.40;99.90
15231;DHT22;32569;51.762;8.564;2023-12-20T13:28:20;7.30;99.90
15231;DHT22;32569;51.762;8.564;2023-12-20T13:30:47;7.40;99.90
15231;DHT22;32569;51.762;8.564;2023-12-20T13:33:13;7.40;99.90
15231;DHT22;32569;51.762;8.564;2023-12-20T13:35:40;7.40;99.90
15231;DHT22;32569;51.762;8.564;2023-12-20T13:38:07;7.40;99.90
15231;DHT22;32569;51.762;8.564;2023-12-20T13:40:34;7.30;99.90
15231;DHT22;32569;51.762;8.564;2023-12-20T13:43:02;7.40;99.90
15231;DHT22;32569;51.762;8.564;2023-12-20T13:45:29;7.40;99.90
15231;DHT22;32569;51.762;8.564;2023-12-20T13:47:56;7.40;99.90
15231;DHT22;32569;51.762;8.564;2023-12-20T13:50:22;7.30;99.90
15231;DHT22;32569;51.762;8.564;2023-12-20T13:52:49;7.30;99.90
15231;DHT22;32569;51.762;8.564;2023-12-20T13:55:15;7.20;99.90
15231;DHT22;32569;51.762;8.564;2023-12-20T13:57:42;7.20;99.90
15231;DHT22;32569;51.762;8.564;2023-12-20T14:00:12;7.20;99.90
15231;DHT22;32569;51.762;8.564;2023-12-20T14:02:40;7.20;99.90
15231;DHT22;32569;51.762;8.564;2023-12-20T14:05:08;7.20;99.90
15231;DHT22;32569;51.762;8.564;2023-12-20T14:07:34;7.20;99.90
15231;DHT22;32569;51.762;8.564;2023-12-20T14:10:01;7.20;99.90
15231;DHT22;32569;51.762;8.564;2023-12-20T14:12:28;7.20;99.90
15231;DHT22;32569;51.762;8.564;2023-12-20T14:14:55;7.20;99.90
15231;DHT22;32569;51.762;8.564;2023-12-20T14:17:23;7.10;99.90
15231;DHT22;32569;51.762;8.564;2023-12-20T14:19:50;7.20;99.90
15231;DHT22;32569;51.762;8.564;2023-12-20T14:22:17;7.20;99.90
15231;DHT22;32569;51.762;8.564;2023-12-20T14:24:44;7.20;99.90
15231;DHT22;32569;51.762;8.564;2023-12-20T14:27:11;7.10;99.90
15231;DHT22;32569;51.762;8.564;2023-12-20T14:29:38;7.10;99.90
15231;DHT22;32569;51.762;8.564;2023-12-20T14:32:06;7.20;99.90
15231;DHT22;32569;51.762;8.564;2023-12-20T14:34:34;7.20;99.90
15231;DHT22;32569;51.762;8.564;2023-12-20T14:37:01;7.10;99.90
15231;DHT22;32569;51.762;8.564;2023-12-20T14:39:27;7.10;99.90
15231;DHT22;32569;51.762;8.564;2023-12-20T14:41:54;7.20;99.90
15231;DHT22;32569;51.762;8.564;2023-12-20T14:44:21;7.20;99.90
15231;DHT22;32569;51.762;8.564;2023-12-20T14:46:47;7.20;99.90
15231;DHT22;32569;51.762;8.564;2023-12-20T14:49:14;7.20;99.90
15231;DHT22;32569;51.762;8.564;2023-12-20T14:51:45;7.20;99.90
15231;DHT22;32569;51.762;8.564;2023-12-20T14:54:13;7.20;99.90
15231;DHT22;32569;51.762;8.564;2023-12-20T14:56:40;7.20;99.90
15231;DHT22;32569;51.762;8.564;2023-12-20T14:59:06;7.20;99.90
15231;DHT22;32569;51.762;8.564;2023-12-20T15:01:33;7.10;99.90
15231;DHT22;32569;51.762;8.564;2023-12-20T15:04:00;7.20;99.90
15231;DHT22;32569;51.762;8.564;2023-12-20T15:06:26;7.20;99.90
15231;DHT22;32569;51.762;8.564;2023-12-20T15:08:54;7.20;99.90
15231;DHT22;32569;51.762;8.564;2023-12-20T15:11:21;7.20;99.90
15231;DHT22;32569;51.762;8.564;2023-12-20T15:13:48;7.20;99.90
15231;DHT22;32569;51.762;8.564;2023-12-20T15:16:20;7.20;99.90
15231;DHT22;32569;51.762;8.564;2023-12-20T15:18:47;7.10;99.90
15231;DHT22;32569;51.762;8.564;2023-12-20T15:21:14;7.10;99.90
15231;DHT22;32569;51.762;8.564;2023-12-20T15:23:41;7.10;99.90
15231;DHT22;32569;51.762;8.564;2023-12-20T15:26:19;7.10;99.90
15231;DHT22;32569;51.762;8.564;2023-12-20T15:28:45;7.10;99.90
15231;DHT22;32569;51.762;8.564;2023-12-20T15:31:12;7.10;99.90
15231;DHT22;32569;51.762;8.564;2023-12-20T15:33:39;7.10;99.90
15231;DHT22;32569;51.762;8.564;2023-12-20T15:36:06;7.10;99.90
15231;DHT22;32569;51.762;8.564;2023-12-20T15:38:33;7.10;99.90
15231;DHT22;32569;51.762;8.564;2023-12-20T15:41:00;7.10;99.90
15231;DHT22;32569;51.762;8.564;2023-12-20T15:43:28;7.10;99.90
15231;DHT22;32569;51.762;8.564;2023-12-20T15:45:55;7.10;99.90